createdAt,value
2022-09-02T00:00:00.848Z,85.5
2022-09-02T00:01:01.009Z,85.6
2022-09-02T00:02:01.295Z,85.6
2022-09-02T00:03:00.496Z,86
2022-09-02T00:04:00.463Z,86.1
2022-09-02T00:05:00.604Z,86.2
2022-09-02T00:06:00.761Z,86.1
2022-09-02T00:07:00.915Z,86.1
2022-09-02T00:08:01.083Z,85.9
2022-09-02T00:09:01.240Z,85.9
2022-09-02T00:10:00.365Z,85.7
2022-09-02T00:11:00.521Z,85.9
2022-09-02T00:12:00.672Z,85.6
2022-09-02T00:13:00.821Z,85.5
2022-09-02T00:14:00.983Z,86.2
2022-09-02T00:15:01.128Z,86
2022-09-02T00:16:00.283Z,86
2022-09-02T00:17:00.551Z,85.8
2022-09-02T00:18:00.581Z,85.3
2022-09-02T00:19:00.756Z,85.6
2022-09-02T00:20:00.883Z,86
2022-09-02T00:21:01.027Z,86.2
2022-09-02T00:22:01.195Z,86.1
2022-09-02T00:23:00.337Z,86.4
2022-09-02T00:24:00.507Z,86
2022-09-02T00:25:00.655Z,85.9
2022-09-02T00:26:00.813Z,85.5
2022-09-02T00:27:00.965Z,86
2022-09-02T00:28:01.112Z,87
2022-09-02T00:29:00.296Z,86.4
2022-09-02T00:30:00.417Z,85.6
2022-09-02T00:31:00.571Z,86.2
2022-09-02T00:32:00.749Z,86.6
2022-09-02T00:33:00.897Z,86.7
2022-09-02T00:34:01.050Z,86.4
2022-09-02T00:35:01.161Z,86.4
2022-09-02T00:36:00.314Z,86.5
2022-09-02T00:37:00.466Z,86.5
2022-09-02T00:38:00.604Z,85.8
2022-09-02T00:39:00.789Z,85.4
2022-09-02T00:40:00.899Z,85.5
2022-09-02T00:41:01.046Z,86
2022-09-02T00:42:01.205Z,86.6
2022-09-02T00:43:00.346Z,86.6
2022-09-02T00:44:00.537Z,86.5
2022-09-02T00:45:00.646Z,86.5
2022-09-02T00:46:00.817Z,86.4
2022-09-02T00:47:00.950Z,86.5
2022-09-02T00:48:01.133Z,86.5
2022-09-02T00:49:00.301Z,86.5
2022-09-02T00:50:00.417Z,86.7
2022-09-02T00:51:00.567Z,86.7
2022-09-02T00:52:00.722Z,86.7
2022-09-02T00:53:00.852Z,86.8
2022-09-02T00:54:01.036Z,86.6
2022-09-02T00:55:01.152Z,86.6
2022-09-02T00:56:00.304Z,86.7
2022-09-02T00:57:00.455Z,86.9
2022-09-02T00:58:00.598Z,86.6
2022-09-02T00:59:00.766Z,86.4
2022-09-02T01:00:00.905Z,86.7
2022-09-02T01:01:01.155Z,86.7
2022-09-02T01:02:01.331Z,86.7
2022-09-02T01:03:00.349Z,86.6
2022-09-02T01:04:00.525Z,86.7
2022-09-02T01:05:00.658Z,86.7
2022-09-02T01:06:00.804Z,86.8
2022-09-02T01:07:00.965Z,86.5
2022-09-02T01:08:01.111Z,86.9
2022-09-02T01:09:00.294Z,87.2
2022-09-02T01:10:00.409Z,87
2022-09-02T01:11:00.571Z,86.8
2022-09-02T01:12:00.730Z,86.7
2022-09-02T01:13:00.873Z,86.6
2022-09-02T01:14:01.046Z,86.6
2022-09-02T01:15:01.183Z,86.6
2022-09-02T01:16:00.372Z,86.7
2022-09-02T01:17:00.489Z,86.7
2022-09-02T01:18:00.636Z,86.7
2022-09-02T01:19:00.813Z,86.6
2022-09-02T01:20:00.926Z,86.7
2022-09-02T01:21:01.104Z,86.7
2022-09-02T01:22:01.238Z,86.7
2022-09-02T01:23:00.382Z,87
2022-09-02T01:24:00.565Z,87.4
2022-09-02T01:25:00.688Z,87.3
2022-09-02T01:26:00.832Z,87.4
2022-09-02T01:27:00.982Z,87.1
2022-09-02T01:28:01.132Z,86.8
2022-09-02T01:29:00.314Z,86.9
2022-09-02T01:30:00.434Z,87.4
2022-09-02T01:31:00.581Z,86.8
2022-09-02T01:32:00.834Z,86.3
2022-09-02T01:33:00.883Z,85.8
2022-09-02T01:34:01.060Z,85.9
2022-09-02T01:35:01.277Z,86.3
2022-09-02T01:36:00.340Z,87
2022-09-02T01:37:00.497Z,87.2
2022-09-02T01:38:00.646Z,86.5
2022-09-02T01:39:00.812Z,86.3
2022-09-02T01:40:00.944Z,86.6
2022-09-02T01:41:01.094Z,87.7
2022-09-02T01:42:01.255Z,87.8
2022-09-02T01:43:00.394Z,87.8
2022-09-02T01:44:00.584Z,87.8
2022-09-02T01:45:00.704Z,88
2022-09-02T01:46:00.852Z,87.8
2022-09-02T01:47:01.089Z,87.4
2022-09-02T01:48:01.171Z,87.4
2022-09-02T01:49:00.316Z,87.5
2022-09-02T01:50:00.459Z,87.5
2022-09-02T01:51:00.617Z,87.4
2022-09-02T01:52:00.787Z,87.5
2022-09-02T01:53:00.913Z,87.5
2022-09-02T01:54:01.042Z,87.4
2022-09-02T01:55:01.195Z,87.6
2022-09-02T01:56:00.340Z,87.3
2022-09-02T01:57:00.507Z,87.3
2022-09-02T01:58:00.675Z,87.1
2022-09-02T01:59:00.795Z,87.4
2022-09-02T02:00:00.940Z,87.5
2022-09-02T02:01:01.128Z,87.4
2022-09-02T02:02:01.286Z,87.6
2022-09-02T02:03:00.422Z,87.6
2022-09-02T02:04:00.556Z,87.5
2022-09-02T02:05:00.711Z,87.5
2022-09-02T02:06:00.854Z,87.8
2022-09-02T02:07:01.002Z,87.8
2022-09-02T02:08:01.194Z,87.8
2022-09-02T02:09:00.314Z,87.7
2022-09-02T02:10:00.463Z,87.8
2022-09-02T02:11:00.622Z,87.6
2022-09-02T02:12:00.772Z,87.7
2022-09-02T02:13:00.922Z,87.9
2022-09-02T02:14:01.085Z,88.2
2022-09-02T02:15:01.232Z,88.2
2022-09-02T02:16:00.465Z,88
2022-09-02T02:17:00.528Z,88
2022-09-02T02:18:00.704Z,87.9
2022-09-02T02:19:00.822Z,87.9
2022-09-02T02:20:00.973Z,87.8
2022-09-02T02:21:01.112Z,87.7
2022-09-02T02:22:00.269Z,87.6
2022-09-02T02:23:00.444Z,87.6
2022-09-02T02:24:00.570Z,87.5
2022-09-02T02:25:00.722Z,87.5
2022-09-02T02:26:00.880Z,87.5
2022-09-02T02:27:01.032Z,87.4
2022-09-02T02:28:02.618Z,87.3
2022-09-02T02:29:00.322Z,87.3
2022-09-02T02:30:00.490Z,87.5
2022-09-02T02:31:00.665Z,87.6
2022-09-02T02:32:00.779Z,87.6
2022-09-02T02:33:00.945Z,86.9
2022-09-02T02:34:01.104Z,86.7
2022-09-02T02:35:01.233Z,86.8
2022-09-02T02:36:00.377Z,86.7
2022-09-02T02:37:00.517Z,87.1
2022-09-02T02:38:02.833Z,87.8
2022-09-02T02:39:00.829Z,88
2022-09-02T02:40:00.975Z,88.2
2022-09-02T02:41:01.115Z,87.9
2022-09-02T02:42:00.272Z,87.9
2022-09-02T02:43:00.412Z,88
2022-09-02T02:44:00.596Z,88.5
2022-09-02T02:45:00.719Z,88.5
2022-09-02T02:46:00.870Z,88.6
2022-09-02T02:47:01.123Z,88.4
2022-09-02T02:48:01.186Z,88.2
2022-09-02T02:49:00.350Z,88
2022-09-02T02:50:00.479Z,87.8
2022-09-02T02:51:00.669Z,87.9
2022-09-02T02:52:00.792Z,87.9
2022-09-02T02:53:00.941Z,88.1
2022-09-02T02:54:01.083Z,88
2022-09-02T02:55:01.243Z,88.2
2022-09-02T02:56:00.392Z,88.2
2022-09-02T02:57:00.552Z,88.1
2022-09-02T02:58:00.673Z,87.9
2022-09-02T02:59:00.824Z,87.8
2022-09-02T03:00:00.976Z,87.8
2022-09-02T03:01:01.175Z,87.7
2022-09-02T03:02:00.425Z,87.8
2022-09-02T03:03:00.517Z,87.8
2022-09-02T03:04:00.595Z,87.9
2022-09-02T03:05:00.736Z,87.9
2022-09-02T03:06:00.922Z,88.2
2022-09-02T03:07:01.031Z,88.2
2022-09-02T03:08:01.186Z,88.2
2022-09-02T03:09:00.330Z,88.2
2022-09-02T03:10:00.495Z,88.5
2022-09-02T03:11:00.642Z,88.9
2022-09-02T03:12:00.787Z,88.5
2022-09-02T03:13:00.951Z,88.5
2022-09-02T03:14:01.082Z,88.6
2022-09-02T03:15:01.233Z,88.3
2022-09-02T03:16:00.466Z,87.9
2022-09-02T03:17:00.533Z,87.9
2022-09-02T03:18:00.714Z,87.8
2022-09-02T03:19:00.825Z,88.1
2022-09-02T03:20:00.968Z,88.5
2022-09-02T03:21:01.124Z,88.1
2022-09-02T03:22:00.273Z,88.3
2022-09-02T03:23:00.427Z,88.1
2022-09-02T03:24:00.577Z,87.9
2022-09-02T03:25:00.729Z,87.9
2022-09-02T03:26:00.873Z,87.8
2022-09-02T03:27:01.024Z,87.7
2022-09-02T03:28:01.206Z,87.6
2022-09-02T03:29:00.323Z,87.6
2022-09-02T03:30:00.480Z,87.7
2022-09-02T03:31:00.743Z,87.8
2022-09-02T03:32:00.790Z,87.7
2022-09-02T03:33:04.001Z,87.7
2022-09-02T03:34:01.132Z,88.1
2022-09-02T03:35:01.242Z,88.4
2022-09-02T03:36:00.392Z,88.2
2022-09-02T03:37:00.549Z,88.5
2022-09-02T03:38:00.710Z,88.5
2022-09-02T03:39:00.901Z,88.5
2022-09-02T03:40:01.023Z,88.6
2022-09-02T03:41:01.180Z,88.4
2022-09-02T03:42:00.332Z,88.2
2022-09-02T03:43:00.782Z,88.2
2022-09-02T03:44:00.690Z,88.1
2022-09-02T03:45:00.811Z,88.4
2022-09-02T03:46:01.021Z,88.2
2022-09-02T03:47:01.128Z,88.2
2022-09-02T03:48:00.262Z,88
2022-09-02T03:49:00.432Z,88.1
2022-09-02T03:50:00.565Z,88.2
2022-09-02T03:51:00.720Z,87.5
2022-09-02T03:52:00.870Z,87.8
2022-09-02T03:53:01.013Z,87.8
2022-09-02T03:54:01.193Z,88.1
2022-09-02T03:55:00.317Z,88.3
2022-09-02T03:56:00.475Z,88.6
2022-09-02T03:57:00.614Z,88
2022-09-02T03:58:02.611Z,87.8
2022-09-02T03:59:00.942Z,88
2022-09-02T04:00:01.068Z,88.2
2022-09-02T04:01:01.220Z,88.1
2022-09-02T04:02:00.544Z,88.2
2022-09-02T04:03:00.570Z,88.2
2022-09-02T04:04:00.692Z,88.2
2022-09-02T04:05:00.822Z,88.1
2022-09-02T04:06:00.968Z,88
2022-09-02T04:07:01.121Z,88
2022-09-02T04:08:00.276Z,88.1
2022-09-02T04:09:00.438Z,88.1
2022-09-02T04:10:00.570Z,88.5
2022-09-02T04:11:00.761Z,88.8
2022-09-02T04:12:00.866Z,88.8
2022-09-02T04:13:01.018Z,88.7
2022-09-02T04:14:01.199Z,88.6
2022-09-02T04:15:00.316Z,89
2022-09-02T04:16:02.131Z,89.1
2022-09-02T04:17:00.614Z,88.8
2022-09-02T04:18:00.754Z,88.4
2022-09-02T04:19:00.925Z,88.1
2022-09-02T04:20:01.046Z,88.5
2022-09-02T04:21:01.205Z,88.4
2022-09-02T04:22:00.360Z,88.3
2022-09-02T04:23:00.495Z,88.5
2022-09-02T04:24:00.683Z,88.5
2022-09-02T04:25:00.804Z,88.5
2022-09-02T04:26:00.945Z,87.9
2022-09-02T04:27:04.194Z,88.1
2022-09-02T04:28:01.250Z,88.4
2022-09-02T04:29:00.434Z,88.6
2022-09-02T04:30:00.552Z,88.4
2022-09-02T04:31:00.817Z,88.4
2022-09-02T04:32:00.855Z,88.3
2022-09-02T04:33:00.999Z,88.3
2022-09-02T04:34:01.179Z,88.3
2022-09-02T04:35:00.303Z,88.3
2022-09-02T04:36:00.450Z,88.5
2022-09-02T04:37:00.598Z,88.4
2022-09-02T04:38:00.734Z,88.4
2022-09-02T04:39:00.910Z,88.4
2022-09-02T04:40:01.031Z,88.4
2022-09-02T04:41:01.193Z,88.4
2022-09-02T04:42:00.341Z,88.5
2022-09-02T04:43:00.495Z,89.1
2022-09-02T04:44:00.663Z,89
2022-09-02T04:45:00.814Z,88.6
2022-09-02T04:46:01.003Z,88.4
2022-09-02T04:47:01.096Z,88.4
2022-09-02T04:48:00.258Z,88.4
2022-09-02T04:49:00.451Z,88.4
2022-09-02T04:50:00.584Z,88.6
2022-09-02T04:51:00.708Z,88.8
2022-09-02T04:52:00.859Z,88.9
2022-09-02T04:53:01.007Z,89.3
2022-09-02T04:54:01.162Z,88.9
2022-09-02T04:55:00.333Z,89.3
2022-09-02T04:56:00.470Z,89.2
2022-09-02T04:57:00.611Z,89.6
2022-09-02T04:58:00.766Z,89.5
2022-09-02T04:59:00.918Z,89.4
2022-09-02T05:00:01.088Z,89
2022-09-02T05:01:01.217Z,88.8
2022-09-02T05:02:00.560Z,88.7
2022-09-02T05:03:00.608Z,88.4
2022-09-02T05:04:00.675Z,88.4
2022-09-02T05:05:00.857Z,88.4
2022-09-02T05:06:00.969Z,88.5
2022-09-02T05:07:01.119Z,88.5
2022-09-02T05:08:00.262Z,88.5
2022-09-02T05:09:00.428Z,88.6
2022-09-02T05:10:00.590Z,88.6
2022-09-02T05:11:00.718Z,89.2
2022-09-02T05:12:00.871Z,89.4
2022-09-02T05:13:01.031Z,89.3
2022-09-02T05:14:01.187Z,89.2
2022-09-02T05:15:00.365Z,89.4
2022-09-02T05:16:00.511Z,89.2
2022-09-02T05:17:05.183Z,89
2022-09-02T05:18:00.787Z,88.8
2022-09-02T05:19:00.938Z,88.9
2022-09-02T05:20:01.110Z,88.8
2022-09-02T05:21:01.243Z,88.8
2022-09-02T05:22:00.382Z,88.9
2022-09-02T05:23:00.540Z,88.9
2022-09-02T05:24:00.683Z,89
2022-09-02T05:25:00.848Z,89.1
2022-09-02T05:26:00.996Z,88.9
2022-09-02T05:27:01.139Z,89
2022-09-02T05:28:00.290Z,88.9
2022-09-02T05:29:00.436Z,89.1
2022-09-02T05:30:00.601Z,89
2022-09-02T05:31:00.815Z,89
2022-09-02T05:32:00.899Z,89.2
2022-09-02T05:33:01.053Z,89.2
2022-09-02T05:34:01.201Z,89.2
2022-09-02T05:35:00.345Z,89.7
2022-09-02T05:36:00.521Z,89.6
2022-09-02T05:37:00.654Z,89.4
2022-09-02T05:38:01.243Z,89.2
2022-09-02T05:39:00.949Z,89.4
2022-09-02T05:40:01.443Z,89.4
2022-09-02T05:41:01.271Z,89.4
2022-09-02T05:42:00.389Z,89.4
2022-09-02T05:43:00.548Z,89.5
2022-09-02T05:44:01.450Z,89.3
2022-09-02T05:45:00.845Z,89.3
2022-09-02T05:46:01.040Z,89.3
2022-09-02T05:47:01.140Z,89.2
2022-09-02T05:48:00.287Z,89.2
2022-09-02T05:49:00.440Z,89.2
2022-09-02T05:50:00.584Z,88.9
2022-09-02T05:51:00.767Z,89
2022-09-02T05:52:00.888Z,89.1
2022-09-02T05:53:01.033Z,89.1
2022-09-02T05:54:01.187Z,89.3
2022-09-02T05:55:00.341Z,89.6
2022-09-02T05:56:00.510Z,89.8
2022-09-02T05:57:00.640Z,89.8
2022-09-02T05:58:00.784Z,89.7
2022-09-02T05:59:01.669Z,90
2022-09-02T06:00:01.086Z,89.9
2022-09-02T06:01:01.264Z,89.6
2022-09-02T06:02:00.458Z,89.5
2022-09-02T06:03:00.611Z,89.4
2022-09-02T06:04:00.695Z,89.5
2022-09-02T06:05:00.840Z,89.7
2022-09-02T06:06:06.403Z,89.7
2022-09-02T06:07:01.161Z,89.9
2022-09-02T06:08:00.312Z,89.9
2022-09-02T06:09:00.451Z,89.9
2022-09-02T06:10:00.600Z,89.9
2022-09-02T06:11:00.745Z,89.9
2022-09-02T06:12:00.907Z,89.8
2022-09-02T06:13:01.052Z,89.9
2022-09-02T06:14:01.195Z,89.9
2022-09-02T06:15:00.347Z,89.9
2022-09-02T06:16:00.574Z,89.8
2022-09-02T06:17:00.665Z,89.8
2022-09-02T06:18:00.791Z,89.8
2022-09-02T06:19:00.945Z,89.8
2022-09-02T06:20:01.101Z,89.8
2022-09-02T06:21:01.247Z,89.6
2022-09-02T06:22:00.431Z,89.7
2022-09-02T06:23:00.553Z,89.7
2022-09-02T06:24:00.711Z,89.8
2022-09-02T06:25:00.852Z,89.9
2022-09-02T06:26:00.999Z,89.7
2022-09-02T06:27:01.175Z,89.7
2022-09-02T06:28:03.998Z,89.7
2022-09-02T06:29:00.466Z,89.8
2022-09-02T06:30:00.614Z,89.8
2022-09-02T06:31:00.862Z,89.8
2022-09-02T06:32:00.924Z,89.9
2022-09-02T06:33:01.115Z,89.8
2022-09-02T06:34:01.246Z,89.3
2022-09-02T06:35:00.390Z,89.5
2022-09-02T06:36:00.536Z,89.9
2022-09-02T06:37:00.686Z,90.1
2022-09-02T06:38:00.875Z,90.2
2022-09-02T06:39:01.001Z,90.3
2022-09-02T06:40:01.152Z,90.2
2022-09-02T06:41:00.309Z,90.2
2022-09-02T06:42:00.460Z,90
2022-09-02T06:43:00.647Z,90
2022-09-02T06:44:00.780Z,89.7
2022-09-02T06:45:00.936Z,89.6
2022-09-02T06:46:01.108Z,89.7
2022-09-02T06:47:01.244Z,89.7
2022-09-02T06:48:00.410Z,89.8
2022-09-02T06:49:00.546Z,89.7
2022-09-02T06:50:00.693Z,89.7
2022-09-02T06:51:00.851Z,89.7
2022-09-02T06:52:00.998Z,89.6
2022-09-02T06:53:01.157Z,89.6
2022-09-02T06:54:00.695Z,89.7
2022-09-02T06:55:00.440Z,89.5
2022-09-02T06:56:00.589Z,89.6
2022-09-02T06:57:00.747Z,89.6
2022-09-02T06:58:00.901Z,89.5
2022-09-02T06:59:01.038Z,89.7
2022-09-02T07:00:02.396Z,89.6
2022-09-02T07:01:00.401Z,89.5
2022-09-02T07:02:00.635Z,89.5
2022-09-02T07:03:00.644Z,89.4
2022-09-02T07:04:00.782Z,89.4
2022-09-02T07:05:00.928Z,89.3
2022-09-02T07:06:01.080Z,89.2
2022-09-02T07:07:01.222Z,89
2022-09-02T07:08:00.392Z,88.9
2022-09-02T07:09:00.513Z,88.9
2022-09-02T07:10:00.653Z,88.9
2022-09-02T07:11:00.816Z,89
2022-09-02T07:12:04.736Z,88.8
2022-09-02T07:13:01.126Z,88.4
2022-09-02T07:14:00.270Z,88.2
2022-09-02T07:15:00.431Z,87.8
2022-09-02T07:16:00.573Z,87.5
2022-09-02T07:17:00.746Z,87.4
2022-09-02T07:18:00.891Z,87.4
2022-09-02T07:19:01.016Z,87.2
2022-09-02T07:20:01.162Z,87
2022-09-02T07:21:00.317Z,86.5
2022-09-02T07:22:00.477Z,86
2022-09-02T07:23:00.640Z,86.2
2022-09-02T07:24:00.802Z,85.8
2022-09-02T07:25:00.914Z,85.9
2022-09-02T07:26:01.079Z,86.1
2022-09-02T07:27:01.226Z,85.9
2022-09-02T07:28:00.372Z,85.5
2022-09-02T07:29:00.542Z,85.4
2022-09-02T07:30:00.668Z,85.4
2022-09-02T07:31:00.870Z,85.1
2022-09-02T07:32:00.972Z,85.1
2022-09-02T07:33:01.115Z,85.3
2022-09-02T07:34:00.276Z,85
2022-09-02T07:35:00.431Z,85.3
2022-09-02T07:36:00.563Z,85
2022-09-02T07:37:05.088Z,84.8
2022-09-02T07:38:00.869Z,84.9
2022-09-02T07:39:01.039Z,85.3
2022-09-02T07:40:01.195Z,85.3
2022-09-02T07:41:00.326Z,84.7
2022-09-02T07:42:00.597Z,84.2
2022-09-02T07:43:00.632Z,84.1
2022-09-02T07:44:00.780Z,84.1
2022-09-02T07:45:00.931Z,84.1
2022-09-02T07:46:01.205Z,83.9
2022-09-02T07:47:01.230Z,83.5
2022-09-02T07:48:00.381Z,82.9
2022-09-02T07:49:00.529Z,80.9
2022-09-02T07:50:21.294Z,81.1
2022-09-02T07:51:00.862Z,80.4
2022-09-02T07:52:00.986Z,80.6
2022-09-02T07:53:01.141Z,81.4
2022-09-02T07:54:00.291Z,80.9
2022-09-02T07:55:00.440Z,81
2022-09-02T07:56:00.613Z,81.4
2022-09-02T07:57:00.771Z,80
2022-09-02T07:58:00.893Z,80.1
2022-09-02T07:59:01.046Z,80.4
2022-09-02T08:00:01.188Z,77.5
2022-09-02T08:01:00.398Z,78
2022-09-02T08:02:00.564Z,76.1
2022-09-02T08:03:00.874Z,75.2
2022-09-02T08:04:02.838Z,77.2
2022-09-02T08:05:00.953Z,76
2022-09-02T08:06:01.083Z,75.4
2022-09-02T08:07:01.240Z,74.2
2022-09-02T08:08:00.404Z,73.8
2022-09-02T08:09:00.540Z,73.6
2022-09-02T08:10:00.692Z,74.3
2022-09-02T08:12:00.980Z,74.2
2022-09-02T08:13:01.152Z,73.3
2022-09-02T08:14:00.279Z,73.6
2022-09-02T08:15:00.430Z,70.4
2022-09-02T08:16:00.584Z,72
2022-09-02T08:17:00.856Z,70.2
2022-09-02T08:18:00.899Z,71.2
2022-09-02T08:19:01.033Z,72.4
2022-09-02T08:20:01.186Z,72.7
2022-09-02T08:21:00.336Z,72.5
2022-09-02T08:22:00.482Z,70.4
2022-09-02T08:23:11.119Z,70
2022-09-02T08:24:00.781Z,68.9
2022-09-02T08:25:00.946Z,68.4
2022-09-02T08:26:01.098Z,67.9
2022-09-02T08:27:01.238Z,69.6
2022-09-02T08:28:00.405Z,70.6
2022-09-02T08:29:00.560Z,69.2
2022-09-02T08:30:00.708Z,67.1
2022-09-02T08:31:00.855Z,67.4
2022-09-02T08:32:01.094Z,69.2
2022-09-02T08:33:01.160Z,68.3
2022-09-02T08:34:00.300Z,69
2022-09-02T08:35:00.447Z,68
2022-09-02T08:36:00.606Z,68.2
2022-09-02T08:37:00.762Z,66
2022-09-02T08:38:02.364Z,67.2
2022-09-02T08:39:01.067Z,68.9
2022-09-02T08:40:01.208Z,66.9
2022-09-02T08:41:00.351Z,67.8
2022-09-02T08:43:00.668Z,65.7
2022-09-02T08:44:00.829Z,64.9
2022-09-02T08:45:00.940Z,64.7
2022-09-02T08:46:01.218Z,65.2
2022-09-02T08:47:01.235Z,64.9
2022-09-02T08:48:00.380Z,67
2022-09-02T08:49:00.574Z,64.7
2022-09-02T08:50:00.687Z,64.8
2022-09-02T08:51:00.837Z,64.7
2022-09-02T08:52:01.314Z,64.1
2022-09-02T08:53:01.139Z,65.5
2022-09-02T08:54:00.295Z,66.8
2022-09-02T08:55:00.436Z,64.5
2022-09-02T08:56:00.586Z,65
2022-09-02T08:57:00.772Z,63.9
2022-09-02T08:58:00.921Z,63.5
2022-09-02T08:59:01.022Z,64.5
2022-09-02T09:00:01.313Z,63.3
2022-09-02T09:01:00.372Z,63.6
2022-09-02T09:02:01.037Z,61
2022-09-02T09:03:00.664Z,61.2
2022-09-02T09:04:00.781Z,62.1
2022-09-02T09:05:00.946Z,62.5
2022-09-02T09:06:01.084Z,61.2
2022-09-02T09:07:01.227Z,61.1
2022-09-02T09:08:00.419Z,62.1
2022-09-02T09:09:00.539Z,61.6
2022-09-02T09:10:00.687Z,59.5
2022-09-02T09:11:00.840Z,61.9
2022-09-02T09:12:00.991Z,60.3
2022-09-02T09:13:01.152Z,60.5
2022-09-02T09:14:00.298Z,61.1
2022-09-02T09:15:00.452Z,61.9
2022-09-02T09:16:00.674Z,61.2
2022-09-02T09:17:00.749Z,60.3
2022-09-02T09:18:00.912Z,59.8
2022-09-02T09:19:01.753Z,59.3
2022-09-02T09:20:01.204Z,57.9
2022-09-02T09:21:00.349Z,59.4
2022-09-02T09:22:00.509Z,59.7
2022-09-02T09:23:00.665Z,61
2022-09-02T09:24:00.800Z,60.5
2022-09-02T09:25:00.944Z,59.2
2022-09-02T09:26:01.089Z,59.4
2022-09-02T09:27:01.250Z,59.5
2022-09-02T09:28:00.430Z,61.1
2022-09-02T09:29:00.554Z,62.1
2022-09-02T09:30:00.700Z,61.9
2022-09-02T09:31:00.849Z,59.2
2022-09-02T09:32:01.074Z,59
2022-09-02T09:33:01.172Z,59
2022-09-02T09:34:00.290Z,59.6
2022-09-02T09:35:00.491Z,61.1
2022-09-02T09:36:00.596Z,59.8
2022-09-02T09:37:00.745Z,60.7
2022-09-02T09:38:00.919Z,60.7
2022-09-02T09:39:01.077Z,60.5
2022-09-02T09:40:01.201Z,60.6
2022-09-02T09:41:00.354Z,59.3
2022-09-02T09:42:00.506Z,59.6
2022-09-02T09:44:00.822Z,59.8
2022-09-02T09:45:00.949Z,59.3
2022-09-02T09:46:01.148Z,60.1
2022-09-02T09:47:01.252Z,59.3
2022-09-02T09:48:00.434Z,60.2
2022-09-02T09:49:00.552Z,57.6
2022-09-02T09:50:00.715Z,59
2022-09-02T09:51:00.866Z,60
2022-09-02T09:52:00.999Z,61.8
2022-09-02T09:53:01.166Z,59.2
2022-09-02T09:54:00.289Z,59.9
2022-09-02T09:55:00.895Z,58.9
2022-09-02T09:56:00.601Z,58.9
2022-09-02T09:57:00.768Z,60.6
2022-09-02T09:58:00.902Z,58.6
2022-09-02T09:59:01.043Z,60.5
2022-09-02T10:00:01.194Z,60.1
2022-09-02T10:01:00.507Z,59.9
2022-09-02T10:02:00.564Z,61.9
2022-09-02T10:03:00.646Z,59.9
2022-09-02T10:04:00.774Z,60.6
2022-09-02T10:05:00.931Z,62.6
2022-09-02T10:06:01.076Z,62.2
2022-09-02T10:07:01.220Z,59.2
2022-09-02T10:08:00.403Z,60.8
2022-09-02T10:09:00.547Z,60
2022-09-02T10:10:00.700Z,61.8
2022-09-02T10:11:00.859Z,59.3
2022-09-02T10:12:00.993Z,60.3
2022-09-02T10:13:01.179Z,61.3
2022-09-02T10:14:00.305Z,61.7
2022-09-02T10:15:00.456Z,59.1
2022-09-02T10:16:00.707Z,59.2
2022-09-02T10:17:00.755Z,59.5
2022-09-02T10:18:00.931Z,58.4
2022-09-02T10:19:01.066Z,59.4
2022-09-02T10:20:01.213Z,59
2022-09-02T10:21:15.259Z,58.2
2022-09-02T10:22:00.525Z,58.9
2022-09-02T10:23:00.865Z,57.4
2022-09-02T10:24:00.814Z,57.5
2022-09-02T10:25:00.957Z,57.2
2022-09-02T10:26:01.115Z,56.9
2022-09-02T10:27:00.291Z,59.2
2022-09-02T10:28:00.437Z,58.1
2022-09-02T10:29:03.900Z,59.8
2022-09-02T10:30:00.741Z,58.4
2022-09-02T10:31:00.898Z,57.8
2022-09-02T10:32:01.053Z,57.7
2022-09-02T10:33:01.210Z,58
2022-09-02T10:34:00.337Z,60.2
2022-09-02T10:35:00.520Z,59.3
2022-09-02T10:36:00.644Z,58.8
2022-09-02T10:37:00.809Z,58.1
2022-09-02T10:38:00.931Z,58
2022-09-02T10:39:01.080Z,57.4
2022-09-02T10:40:01.247Z,58.1
2022-09-02T10:41:00.513Z,57.6
2022-09-02T10:42:00.566Z,59
2022-09-02T10:43:00.691Z,60.2
2022-09-02T10:44:00.840Z,59.2
2022-09-02T10:45:00.993Z,58.8
2022-09-02T10:46:01.142Z,57.6
2022-09-02T10:47:00.401Z,59.5
2022-09-02T10:48:00.442Z,57.3
2022-09-02T10:49:00.586Z,58.3
2022-09-02T10:50:00.747Z,58
2022-09-02T10:51:00.876Z,56.7
2022-09-02T10:52:01.046Z,57.3
2022-09-02T10:53:02.756Z,56.5
2022-09-02T10:54:00.386Z,56.3
2022-09-02T10:55:00.507Z,56.9
2022-09-02T10:56:00.640Z,56.9
2022-09-02T10:57:00.796Z,57.7
2022-09-02T10:58:00.967Z,56.1
2022-09-02T10:59:01.144Z,57.8
2022-09-02T11:00:01.245Z,56.6
2022-09-02T11:01:00.576Z,55.4
2022-09-02T11:02:00.557Z,57.5
2022-09-02T11:03:00.756Z,57.5
2022-09-02T11:04:00.940Z,57.7
2022-09-02T11:05:01.023Z,56.3
2022-09-02T11:06:01.175Z,58.5
2022-09-02T11:07:03.250Z,56.8
2022-09-02T11:08:00.481Z,59.7
2022-09-02T11:09:00.670Z,57.1
2022-09-02T11:10:00.790Z,59.2
2022-09-02T11:11:00.944Z,57.9
2022-09-02T11:12:01.093Z,57
2022-09-02T11:13:01.243Z,58.9
2022-09-02T11:14:00.419Z,56.4
2022-09-02T11:15:00.546Z,57.4
2022-09-02T11:16:00.787Z,60.1
2022-09-02T11:17:00.855Z,58.5
2022-09-02T11:18:01.053Z,56.2
2022-09-02T11:19:01.169Z,54.6
2022-09-02T11:20:00.325Z,57.3
2022-09-02T11:21:00.474Z,57.6
2022-09-02T11:22:00.616Z,56.2
2022-09-02T11:23:00.764Z,57.1
2022-09-02T11:24:00.931Z,56.8
2022-09-02T11:25:01.083Z,57
2022-09-02T11:26:01.221Z,57.3
2022-09-02T11:27:00.364Z,56.6
2022-09-02T11:28:00.523Z,56.3
2022-09-02T11:29:00.673Z,56.1
2022-09-02T11:30:00.845Z,55.5
2022-09-02T11:31:00.969Z,56.3
2022-09-02T11:32:01.128Z,55.6
2022-09-02T11:33:00.274Z,57.1
2022-09-02T11:34:04.842Z,55.5
2022-09-02T11:35:00.608Z,55.9
2022-09-02T11:36:00.726Z,57.4
2022-09-02T11:37:00.866Z,56.7
2022-09-02T11:38:01.017Z,56.3
2022-09-02T11:39:01.179Z,57.4
2022-09-02T11:40:17.315Z,57.2
2022-09-02T11:42:00.684Z,57.1
2022-09-02T11:43:00.772Z,56.7
2022-09-02T11:44:00.923Z,58
2022-09-02T11:45:01.089Z,58.7
2022-09-02T11:46:01.338Z,56.2
2022-09-02T11:47:00.393Z,55.3
2022-09-02T11:48:00.522Z,56.1
2022-09-02T11:49:00.672Z,56.4
2022-09-02T11:50:00.850Z,56.3
2022-09-02T11:51:00.976Z,58.6
2022-09-02T11:52:01.894Z,57.3
2022-09-02T11:53:00.270Z,59.4
2022-09-02T11:54:00.407Z,57.8
2022-09-02T11:55:02.642Z,58.6
2022-09-02T11:56:00.702Z,58.2
2022-09-02T11:57:00.857Z,58.2
2022-09-02T11:58:01.006Z,58.9
2022-09-02T11:59:01.162Z,58.3
2022-09-02T12:00:00.309Z,57.4
2022-09-02T12:01:00.475Z,58.9
2022-09-02T12:02:00.601Z,59
2022-09-02T12:03:04.766Z,59
2022-09-02T12:04:56.205Z,56.4
2022-09-02T12:05:02.302Z,58
2022-09-02T12:06:01.288Z,56.9
2022-09-02T12:07:04.375Z,56.7
2022-09-02T12:08:00.529Z,57.1
2022-09-02T12:09:00.659Z,57.5
2022-09-02T12:10:00.864Z,56.5
2022-09-02T12:11:00.982Z,57.3
2022-09-02T12:12:01.125Z,58.2
2022-09-02T12:13:01.258Z,58.1
2022-09-02T12:14:02.900Z,57.7
2022-09-02T12:15:00.554Z,59.4
2022-09-02T12:16:00.793Z,58.6
2022-09-02T12:17:00.847Z,58
2022-09-02T12:18:00.982Z,57.2
2022-09-02T12:19:01.130Z,58.9
2022-09-02T12:20:00.279Z,59.9
2022-09-02T12:21:00.453Z,57.4
2022-09-02T12:22:00.597Z,59.1
2022-09-02T12:23:00.741Z,57.7
2022-09-02T12:24:00.878Z,57.9
2022-09-02T12:25:01.025Z,57.4
2022-09-02T12:26:01.180Z,57.7
2022-09-02T12:27:00.359Z,58.4
2022-09-02T12:28:00.485Z,58
2022-09-02T12:29:00.633Z,57.5
2022-09-02T12:30:00.784Z,57.5
2022-09-02T12:31:01.018Z,58.9
2022-09-02T12:32:01.116Z,58.9
2022-09-02T12:33:01.234Z,58.7
2022-09-02T12:34:00.393Z,59.5
2022-09-02T12:35:00.539Z,57.6
2022-09-02T12:36:00.707Z,60.2
2022-09-02T12:37:00.859Z,58.8
2022-09-02T12:38:00.990Z,58.1
2022-09-02T12:39:01.136Z,57.6
2022-09-02T12:40:00.285Z,57.9
2022-09-02T12:41:00.546Z,59.6
2022-09-02T12:42:00.620Z,57.8
2022-09-02T12:43:00.749Z,57.8
2022-09-02T12:44:00.896Z,58.8
2022-09-02T12:45:01.058Z,59.5
2022-09-02T12:46:01.198Z,58.7
2022-09-02T12:47:00.454Z,58.2
2022-09-02T12:48:00.506Z,58.3
2022-09-02T12:49:00.658Z,60.9
2022-09-02T12:50:00.809Z,59
2022-09-02T12:51:00.960Z,57.8
2022-09-02T12:52:01.123Z,60
2022-09-02T12:54:00.374Z,57.3
2022-09-02T12:55:00.530Z,57.7
2022-09-02T12:56:00.687Z,58.6
2022-09-02T12:57:00.842Z,57.5
2022-09-02T12:58:00.972Z,58.9
2022-09-02T12:59:02.864Z,56.3
2022-09-02T13:00:00.276Z,57.7
2022-09-02T13:01:00.427Z,57.8
2022-09-02T13:02:00.597Z,57.9
2022-09-02T13:03:00.764Z,57.5
2022-09-02T13:04:00.885Z,59.3
2022-09-02T13:05:01.044Z,57.9
2022-09-02T13:06:01.191Z,57.1
2022-09-02T13:07:00.341Z,57.3
2022-09-02T13:08:02.527Z,58.1
2022-09-02T13:09:00.642Z,56.6
2022-09-02T13:10:00.794Z,58
2022-09-02T13:11:00.954Z,57.3
2022-09-02T13:12:01.106Z,56.7
2022-09-02T13:13:01.268Z,56.9
2022-09-02T13:14:00.412Z,55.9
2022-09-02T13:15:00.553Z,56.6
2022-09-02T13:16:00.781Z,56.7
2022-09-02T13:17:08.919Z,57.3
2022-09-02T13:18:01.013Z,56
2022-09-02T13:19:01.158Z,57.3
2022-09-02T13:20:00.308Z,56.8
2022-09-02T13:21:00.480Z,56.5
2022-09-02T13:22:00.610Z,57.7
2022-09-02T13:23:00.773Z,58.6
2022-09-02T13:24:00.906Z,58.1
2022-09-02T13:25:01.124Z,58.7
2022-09-02T13:26:01.247Z,59
2022-09-02T13:27:00.410Z,57.8
2022-09-02T13:28:00.541Z,59.4